createdAt,value
2017-12-26T00:00:01.170Z,994.83
2017-12-26T00:01:02.584Z,994.84
2017-12-26T00:02:04.004Z,994.77
2017-12-26T00:03:05.412Z,994.75
2017-12-26T00:04:06.818Z,994.70
2017-12-26T00:05:08.228Z,994.67
2017-12-26T00:06:09.644Z,994.57
2017-12-26T00:07:11.054Z,994.56
2017-12-26T00:08:12.461Z,994.51
2017-12-26T00:09:13.872Z,994.50
2017-12-26T00:10:15.301Z,994.52
2017-12-26T00:11:16.711Z,994.47
2017-12-26T00:12:18.117Z,994.42
2017-12-26T00:13:19.548Z,994.51
2017-12-26T00:14:20.966Z,994.43
2017-12-26T00:15:22.387Z,994.40
2017-12-26T00:16:23.794Z,994.33
2017-12-26T00:17:25.208Z,994.42
2017-12-26T00:18:26.616Z,994.37
2017-12-26T00:19:28.016Z,994.40
2017-12-26T00:20:29.426Z,994.35
2017-12-26T00:21:30.841Z,994.37
2017-12-26T00:22:32.254Z,994.26
2017-12-26T00:23:33.656Z,994.30
2017-12-26T00:24:35.083Z,994.21
2017-12-26T00:25:36.495Z,994.26
2017-12-26T00:26:37.905Z,994.12
2017-12-26T00:27:39.315Z,994.13
2017-12-26T00:28:40.729Z,994.05
2017-12-26T00:29:42.136Z,994.02
2017-12-26T00:30:43.543Z,993.98
2017-12-26T00:31:44.963Z,993.97
2017-12-26T00:32:46.370Z,993.93
2017-12-26T00:33:47.783Z,993.88
2017-12-26T00:34:49.187Z,993.94
2017-12-26T00:35:50.592Z,993.87
2017-12-26T00:36:51.999Z,993.90
2017-12-26T00:37:53.411Z,993.82
2017-12-26T00:38:54.853Z,993.76
2017-12-26T00:39:56.232Z,993.71
2017-12-26T00:40:57.634Z,993.70
2017-12-26T00:41:59.057Z,993.59
2017-12-26T00:43:00.483Z,993.55
2017-12-26T00:44:01.907Z,993.52
2017-12-26T00:45:03.305Z,993.49
2017-12-26T00:46:04.720Z,993.49
2017-12-26T00:47:06.146Z,993.58
2017-12-26T00:48:07.549Z,993.44
2017-12-26T00:49:08.953Z,993.49
2017-12-26T00:50:10.372Z,993.34
2017-12-26T00:51:11.778Z,993.42
2017-12-26T00:52:13.196Z,993.31
2017-12-26T00:53:14.607Z,993.28
2017-12-26T00:54:16.024Z,993.35
2017-12-26T00:55:17.428Z,993.28
2017-12-26T00:56:18.834Z,993.22
2017-12-26T00:57:20.247Z,993.26
2017-12-26T00:58:21.660Z,993.25
2017-12-26T00:59:23.067Z,993.21
2017-12-26T01:00:24.527Z,993.15
2017-12-26T01:01:25.950Z,993.15
2017-12-26T01:02:27.357Z,993.15
2017-12-26T01:03:28.770Z,993.19
2017-12-26T01:04:30.180Z,993.06
2017-12-26T01:05:31.585Z,993.03
2017-12-26T01:06:33.006Z,993.03
2017-12-26T01:07:34.409Z,992.99
2017-12-26T01:08:35.834Z,993.05
2017-12-26T01:09:37.246Z,993.09
2017-12-26T01:10:38.657Z,992.90
2017-12-26T01:11:40.071Z,993.00
2017-12-26T01:12:41.491Z,992.93
2017-12-26T01:13:42.904Z,992.89
2017-12-26T01:14:44.307Z,992.79
2017-12-26T01:15:45.718Z,992.68
2017-12-26T01:16:47.126Z,992.63
2017-12-26T01:17:48.538Z,992.57
2017-12-26T01:18:49.959Z,992.47
2017-12-26T01:19:51.360Z,992.51
2017-12-26T01:20:52.768Z,992.43
2017-12-26T01:21:54.182Z,992.40
2017-12-26T01:22:55.596Z,992.37
2017-12-26T01:23:57.006Z,992.31
2017-12-26T01:24:58.416Z,992.44
2017-12-26T01:25:59.822Z,992.32
2017-12-26T01:27:01.231Z,992.38
2017-12-26T01:28:02.644Z,992.26
2017-12-26T01:29:04.054Z,992.28
2017-12-26T01:30:05.486Z,992.19
2017-12-26T01:31:06.893Z,992.24
2017-12-26T01:32:08.358Z,992.17
2017-12-26T01:33:09.774Z,992.18
2017-12-26T01:34:11.176Z,992.16
2017-12-26T01:35:12.584Z,992.15
2017-12-26T01:36:13.989Z,992.22
2017-12-26T01:37:15.404Z,992.11
2017-12-26T01:38:16.811Z,992.10
2017-12-26T01:39:18.225Z,992.13
2017-12-26T01:40:19.627Z,992.07
2017-12-26T01:41:21.031Z,992.08
2017-12-26T01:42:22.429Z,992.03
2017-12-26T01:43:23.847Z,992.11
2017-12-26T01:44:25.258Z,991.97
2017-12-26T01:45:26.663Z,992.01
2017-12-26T01:46:28.076Z,992.03
2017-12-26T01:47:29.484Z,992.00
2017-12-26T01:48:30.928Z,991.97
2017-12-26T01:49:32.337Z,991.97
2017-12-26T01:50:33.745Z,991.98
2017-12-26T01:51:35.160Z,992.05
2017-12-26T01:52:36.566Z,991.94
2017-12-26T01:53:37.981Z,992.06
2017-12-26T01:54:39.394Z,991.98
2017-12-26T01:55:40.843Z,991.95
2017-12-26T01:56:42.262Z,991.95
2017-12-26T01:57:43.671Z,991.95
2017-12-26T01:58:45.083Z,991.97
2017-12-26T01:59:46.494Z,991.85
2017-12-26T02:00:47.908Z,991.90
2017-12-26T02:01:49.312Z,991.86
2017-12-26T02:02:50.772Z,991.85
2017-12-26T02:03:52.168Z,991.84
2017-12-26T02:04:53.572Z,991.84
2017-12-26T02:05:54.991Z,991.82
2017-12-26T02:06:56.396Z,991.62
2017-12-26T02:07:57.818Z,991.82
2017-12-26T02:08:59.323Z,991.65
2017-12-26T02:10:00.750Z,991.63
2017-12-26T02:11:02.167Z,991.60
2017-12-26T02:12:03.576Z,991.61
2017-12-26T02:13:04.984Z,991.58
2017-12-26T02:14:06.397Z,991.51
2017-12-26T02:15:07.806Z,991.56
2017-12-26T02:16:09.214Z,991.52
2017-12-26T02:17:10.641Z,991.52
2017-12-26T02:18:12.055Z,991.43
2017-12-26T02:19:13.468Z,991.48
2017-12-26T02:20:14.877Z,991.41
2017-12-26T02:21:16.290Z,991.45
2017-12-26T02:22:17.697Z,991.41
2017-12-26T02:23:19.108Z,991.35
2017-12-26T02:24:20.516Z,991.28
2017-12-26T02:25:21.927Z,991.38
2017-12-26T02:26:23.339Z,991.23
2017-12-26T02:27:24.743Z,991.24
2017-12-26T02:28:26.215Z,991.23
2017-12-26T02:29:27.613Z,991.20
2017-12-26T02:30:29.024Z,991.20
2017-12-26T02:31:30.427Z,991.20
2017-12-26T02:32:31.842Z,991.17
2017-12-26T02:33:33.239Z,991.15
2017-12-26T02:34:34.656Z,991.11
2017-12-26T02:35:36.088Z,991.07
2017-12-26T02:36:37.492Z,991.11
2017-12-26T02:37:38.911Z,991.05
2017-12-26T02:38:40.318Z,991.09
2017-12-26T02:39:41.776Z,991.06
2017-12-26T02:40:43.133Z,990.95
2017-12-26T02:41:44.547Z,990.96
2017-12-26T02:42:45.956Z,990.93
2017-12-26T02:43:47.367Z,990.96
2017-12-26T02:44:48.774Z,990.93
2017-12-26T02:45:50.195Z,990.88
2017-12-26T02:46:51.601Z,990.98
2017-12-26T02:47:53.006Z,990.90
2017-12-26T02:48:54.452Z,990.88
2017-12-26T02:49:55.826Z,990.89
2017-12-26T02:50:57.251Z,990.79
2017-12-26T02:51:58.655Z,990.71
2017-12-26T02:53:00.073Z,990.73
2017-12-26T02:54:01.503Z,990.67
2017-12-26T02:55:02.903Z,990.80
2017-12-26T02:56:04.317Z,990.64
2017-12-26T02:57:05.723Z,990.65
2017-12-26T02:58:07.135Z,990.60
2017-12-26T02:59:11.735Z,990.55
2017-12-26T03:00:13.142Z,990.54
2017-12-26T03:01:14.549Z,990.55
2017-12-26T03:02:15.972Z,990.54
2017-12-26T03:03:17.387Z,990.54
2017-12-26T03:04:18.796Z,990.51
2017-12-26T03:05:20.202Z,990.56
2017-12-26T03:06:21.605Z,990.37
2017-12-26T03:07:23.015Z,990.32
2017-12-26T03:08:24.428Z,990.35
2017-12-26T03:09:25.833Z,990.35
2017-12-26T03:10:27.242Z,990.41
2017-12-26T03:11:28.668Z,990.39
2017-12-26T03:12:30.083Z,990.33
2017-12-26T03:13:31.505Z,990.30
2017-12-26T03:14:32.915Z,990.30
2017-12-26T03:15:34.356Z,990.33
2017-12-26T03:16:35.775Z,990.23
2017-12-26T03:17:37.177Z,990.23
2017-12-26T03:18:38.586Z,990.23
2017-12-26T03:19:39.998Z,990.17
2017-12-26T03:20:41.483Z,990.19
2017-12-26T03:21:42.893Z,990.06
2017-12-26T03:22:44.299Z,990.11
2017-12-26T03:23:45.711Z,990.18
2017-12-26T03:24:47.129Z,990.12
2017-12-26T03:25:48.590Z,990.11
2017-12-26T03:26:49.949Z,990.07
2017-12-26T03:27:51.365Z,990.07
2017-12-26T03:28:52.776Z,990.16
2017-12-26T03:29:54.196Z,990.04
2017-12-26T03:30:55.611Z,990.02
2017-12-26T03:31:57.017Z,989.91
2017-12-26T03:32:58.425Z,989.88
2017-12-26T03:33:59.831Z,989.84
2017-12-26T03:35:01.243Z,989.95
2017-12-26T03:36:02.652Z,989.86
2017-12-26T03:37:04.068Z,989.81
2017-12-26T03:38:05.476Z,989.78
2017-12-26T03:39:06.886Z,989.62
2017-12-26T03:40:08.291Z,989.61
2017-12-26T03:41:09.697Z,989.74
2017-12-26T03:42:11.105Z,989.75
2017-12-26T03:43:12.514Z,989.62
2017-12-26T03:44:13.930Z,989.53
2017-12-26T03:45:15.337Z,989.46
2017-12-26T03:46:16.740Z,989.46
2017-12-26T03:47:18.156Z,989.43
2017-12-26T03:48:19.567Z,989.40
2017-12-26T03:49:20.972Z,989.50
2017-12-26T03:50:22.396Z,989.33
2017-12-26T03:51:23.817Z,989.31
2017-12-26T03:52:25.228Z,989.40
2017-12-26T03:53:26.629Z,989.42
2017-12-26T03:54:28.038Z,989.29
2017-12-26T03:55:29.445Z,989.25
2017-12-26T03:56:30.855Z,989.22
2017-12-26T03:57:32.263Z,989.22
2017-12-26T03:58:33.751Z,989.30
2017-12-26T03:59:35.171Z,989.18
2017-12-26T04:00:36.577Z,989.24
2017-12-26T04:01:37.984Z,989.12
2017-12-26T04:02:39.364Z,989.03
2017-12-26T04:03:40.777Z,989.07
2017-12-26T04:04:42.182Z,989.18
2017-12-26T04:05:43.598Z,989.04
2017-12-26T04:06:45.011Z,989.11
2017-12-26T04:07:46.424Z,989.06
2017-12-26T04:08:47.837Z,989.07
2017-12-26T04:09:49.240Z,989.15
2017-12-26T04:10:50.665Z,988.97
2017-12-26T04:11:52.073Z,988.87
2017-12-26T04:12:53.487Z,988.94
2017-12-26T04:13:54.891Z,988.97
2017-12-26T04:14:56.297Z,988.98
2017-12-26T04:15:57.696Z,988.97
2017-12-26T04:16:59.110Z,988.92
2017-12-26T04:18:00.516Z,989.02
2017-12-26T04:19:01.927Z,988.97
2017-12-26T04:20:03.349Z,988.83
2017-12-26T04:21:04.748Z,988.92
2017-12-26T04:22:06.162Z,989.10
2017-12-26T04:23:07.572Z,988.83
2017-12-26T04:24:08.986Z,988.81
2017-12-26T04:25:10.394Z,988.79
2017-12-26T04:26:11.807Z,988.68
2017-12-26T04:27:13.224Z,988.79
2017-12-26T04:28:14.624Z,988.76
2017-12-26T04:29:16.034Z,988.81
2017-12-26T04:30:17.440Z,988.82
2017-12-26T04:31:18.869Z,988.72
2017-12-26T04:32:20.274Z,988.62
2017-12-26T04:33:21.647Z,988.69
2017-12-26T04:34:23.053Z,988.74
2017-12-26T04:35:24.468Z,988.67
2017-12-26T04:36:25.874Z,988.62
2017-12-26T04:37:27.286Z,988.70
2017-12-26T04:38:28.692Z,988.71
2017-12-26T04:39:30.105Z,988.64
2017-12-26T04:40:31.517Z,988.67
2017-12-26T04:41:32.927Z,988.61
2017-12-26T04:42:34.337Z,988.64
2017-12-26T04:43:35.744Z,988.56
2017-12-26T04:44:37.156Z,988.57
2017-12-26T04:45:38.563Z,988.55
2017-12-26T04:46:39.976Z,988.53
2017-12-26T04:47:41.383Z,988.55
2017-12-26T04:48:42.799Z,988.56
2017-12-26T04:49:44.200Z,988.40
2017-12-26T04:50:45.620Z,988.34
2017-12-26T04:51:47.019Z,988.36
2017-12-26T04:52:48.427Z,988.39
2017-12-26T04:53:49.838Z,988.50
2017-12-26T04:54:51.247Z,988.32
2017-12-26T04:55:52.655Z,988.38
2017-12-26T04:56:54.070Z,988.41
2017-12-26T04:57:55.475Z,988.26
2017-12-26T04:58:56.877Z,988.23
2017-12-26T04:59:58.287Z,988.20
2017-12-26T05:00:59.709Z,988.16
2017-12-26T05:02:01.110Z,988.20
2017-12-26T05:03:02.520Z,988.17
2017-12-26T05:04:03.925Z,988.26
2017-12-26T05:05:05.345Z,988.11
2017-12-26T05:06:06.756Z,988.07
2017-12-26T05:07:08.165Z,988.18
2017-12-26T05:08:09.579Z,988.04
2017-12-26T05:09:10.996Z,987.99
2017-12-26T05:10:12.402Z,987.83
2017-12-26T05:11:13.800Z,987.96
2017-12-26T05:12:15.219Z,987.96
2017-12-26T05:13:16.627Z,987.98
2017-12-26T05:14:18.035Z,987.99
2017-12-26T05:15:19.445Z,987.94
2017-12-26T05:16:20.864Z,987.77
2017-12-26T05:17:22.280Z,987.82
2017-12-26T05:18:23.680Z,987.68
2017-12-26T05:19:25.102Z,987.77
2017-12-26T05:20:26.513Z,987.87
2017-12-26T05:21:27.923Z,987.89
2017-12-26T05:22:29.339Z,987.83
2017-12-26T05:23:30.745Z,987.79
2017-12-26T05:24:32.163Z,987.62
2017-12-26T05:25:33.565Z,987.64
2017-12-26T05:26:34.977Z,987.71
2017-12-26T05:27:36.381Z,987.75
2017-12-26T05:28:37.866Z,987.78
2017-12-26T05:29:39.276Z,987.77
2017-12-26T05:30:40.694Z,987.68
2017-12-26T05:31:42.099Z,987.63
2017-12-26T05:32:43.505Z,987.62
2017-12-26T05:33:44.911Z,987.59
2017-12-26T05:34:46.318Z,987.54
2017-12-26T05:35:47.736Z,987.59
2017-12-26T05:36:49.148Z,987.61
2017-12-26T05:37:50.558Z,987.64
2017-12-26T05:38:51.981Z,987.55
2017-12-26T05:39:53.386Z,987.63
2017-12-26T05:40:54.806Z,987.60
2017-12-26T05:41:56.213Z,987.67
2017-12-26T05:42:57.627Z,987.52
2017-12-26T05:43:59.037Z,987.58
2017-12-26T05:45:00.464Z,987.55
2017-12-26T05:46:01.865Z,987.47
2017-12-26T05:47:03.275Z,987.52
2017-12-26T05:48:04.802Z,987.58
2017-12-26T05:49:06.217Z,987.57
2017-12-26T05:50:07.627Z,987.54
2017-12-26T05:51:09.035Z,987.57
2017-12-26T05:52:10.454Z,987.53
2017-12-26T05:53:11.860Z,987.55
2017-12-26T05:54:13.278Z,987.42
2017-12-26T05:55:14.696Z,987.56
2017-12-26T05:56:16.106Z,987.60
2017-12-26T05:57:17.512Z,987.49
2017-12-26T05:58:18.943Z,987.47
2017-12-26T05:59:20.357Z,987.33
2017-12-26T06:00:21.773Z,987.40
2017-12-26T06:01:23.187Z,987.48
2017-12-26T06:02:24.622Z,987.43
2017-12-26T06:03:26.035Z,987.49
2017-12-26T06:04:27.437Z,987.34
2017-12-26T06:05:28.863Z,987.36
2017-12-26T06:06:30.268Z,987.24
2017-12-26T06:07:31.671Z,987.30
2017-12-26T06:08:33.088Z,987.25
2017-12-26T06:09:34.491Z,987.25
2017-12-26T06:10:35.894Z,987.23
2017-12-26T06:11:37.310Z,987.29
2017-12-26T06:12:38.721Z,987.23
2017-12-26T06:13:40.256Z,987.43
2017-12-26T06:14:41.669Z,987.51
2017-12-26T06:15:43.073Z,987.55
2017-12-26T06:16:44.478Z,987.51
2017-12-26T06:17:45.894Z,987.48
2017-12-26T06:18:47.306Z,987.46
2017-12-26T06:19:48.713Z,987.36
2017-12-26T06:20:50.120Z,987.37
2017-12-26T06:21:51.537Z,987.43
2017-12-26T06:22:52.953Z,987.49
2017-12-26T06:23:54.368Z,987.49
2017-12-26T06:24:55.779Z,987.50
2017-12-26T06:25:57.227Z,987.47
2017-12-26T06:26:58.638Z,987.39
2017-12-26T06:28:00.054Z,987.39
2017-12-26T06:29:01.468Z,987.38
2017-12-26T06:30:02.874Z,987.36
2017-12-26T06:31:04.285Z,987.44
2017-12-26T06:32:05.696Z,987.31
2017-12-26T06:33:07.114Z,987.42
2017-12-26T06:34:08.516Z,987.43
2017-12-26T06:35:09.934Z,987.45
2017-12-26T06:36:11.340Z,987.45
2017-12-26T06:37:12.759Z,987.51
2017-12-26T06:38:14.161Z,987.55
2017-12-26T06:39:15.678Z,987.48
2017-12-26T06:40:17.089Z,987.57
2017-12-26T06:41:18.501Z,987.53
2017-12-26T06:42:19.947Z,987.53
2017-12-26T06:43:21.372Z,987.62
2017-12-26T06:44:22.800Z,987.58
2017-12-26T06:45:24.222Z,987.60
2017-12-26T06:46:25.629Z,987.59
2017-12-26T06:47:27.032Z,987.57
2017-12-26T06:48:28.442Z,987.67
2017-12-26T06:49:29.849Z,987.60
2017-12-26T06:50:31.263Z,987.59
2017-12-26T06:51:32.668Z,987.62
2017-12-26T06:52:34.083Z,987.59
2017-12-26T06:53:35.495Z,987.65
2017-12-26T06:54:36.907Z,987.54
2017-12-26T06:55:38.319Z,987.44
2017-12-26T06:56:39.726Z,987.54
2017-12-26T06:57:41.144Z,987.57
2017-12-26T06:58:42.559Z,987.47
2017-12-26T06:59:43.968Z,987.38
2017-12-26T07:00:45.373Z,987.47
2017-12-26T07:01:46.788Z,987.32
2017-12-26T07:02:48.208Z,987.29
2017-12-26T07:03:49.610Z,987.28
2017-12-26T07:04:51.046Z,987.29
2017-12-26T07:05:52.427Z,987.19
2017-12-26T07:06:53.840Z,987.30
2017-12-26T07:07:55.245Z,987.26
2017-12-26T07:08:56.651Z,987.14
2017-12-26T07:09:58.058Z,987.10
2017-12-26T07:10:59.469Z,987.15
2017-12-26T07:12:00.879Z,987.09
2017-12-26T07:13:02.294Z,987.05
2017-12-26T07:14:03.705Z,987.05
2017-12-26T07:15:05.115Z,986.98
2017-12-26T07:16:06.525Z,987.01
2017-12-26T07:17:07.930Z,986.95
2017-12-26T07:18:09.345Z,986.96
2017-12-26T07:19:10.755Z,986.90
2017-12-26T07:20:12.169Z,986.89
2017-12-26T07:21:13.586Z,986.87
2017-12-26T07:22:15.003Z,986.69
2017-12-26T07:23:16.409Z,986.67
2017-12-26T07:24:17.816Z,986.64
2017-12-26T07:25:19.227Z,986.65
2017-12-26T07:26:20.632Z,986.70
2017-12-26T07:27:22.033Z,986.66
2017-12-26T07:28:23.475Z,986.63
2017-12-26T07:29:24.865Z,986.57
2017-12-26T07:30:26.272Z,986.62
2017-12-26T07:31:27.690Z,986.58
2017-12-26T07:32:29.112Z,986.56
2017-12-26T07:33:30.528Z,986.55
2017-12-26T07:34:31.934Z,986.53
2017-12-26T07:35:33.342Z,986.52
2017-12-26T07:36:34.758Z,986.56
2017-12-26T07:37:36.179Z,986.36
2017-12-26T07:38:37.579Z,986.36
2017-12-26T07:39:39.003Z,986.34
2017-12-26T07:40:40.412Z,986.32
2017-12-26T07:41:41.828Z,986.45
2017-12-26T07:42:43.238Z,986.41
2017-12-26T07:43:44.654Z,986.32
2017-12-26T07:44:46.054Z,986.29
2017-12-26T07:45:47.464Z,986.31
2017-12-26T07:46:48.892Z,986.33
2017-12-26T07:47:50.285Z,986.40
2017-12-26T07:48:51.698Z,986.37
2017-12-26T07:49:53.116Z,986.43
2017-12-26T07:50:54.526Z,986.43
2017-12-26T07:51:55.941Z,986.49
2017-12-26T07:52:57.349Z,986.50
2017-12-26T07:53:58.773Z,986.47
2017-12-26T07:55:00.186Z,986.42
2017-12-26T07:56:01.596Z,986.55
2017-12-26T07:57:03.009Z,986.55
2017-12-26T07:58:04.415Z,986.54
2017-12-26T07:59:05.827Z,986.56
2017-12-26T08:00:07.249Z,986.57
2017-12-26T08:01:08.661Z,986.64
2017-12-26T08:02:10.066Z,986.72
2017-12-26T08:03:11.479Z,986.73
2017-12-26T08:04:12.890Z,986.84
2017-12-26T08:05:14.298Z,986.80
2017-12-26T08:06:15.719Z,986.89
2017-12-26T08:07:17.127Z,986.90
2017-12-26T08:08:18.539Z,986.95
2017-12-26T08:09:19.948Z,986.87
2017-12-26T08:10:21.374Z,986.97
2017-12-26T08:11:22.784Z,986.91
2017-12-26T08:12:24.253Z,986.91
2017-12-26T08:13:25.669Z,986.91
2017-12-26T08:14:27.072Z,986.99
2017-12-26T08:15:28.489Z,986.91
2017-12-26T08:16:29.906Z,986.96
2017-12-26T08:17:31.313Z,986.85
2017-12-26T08:18:32.807Z,986.87
2017-12-26T08:19:34.225Z,987.00
2017-12-26T08:20:35.635Z,987.01
2017-12-26T08:21:37.046Z,987.05
2017-12-26T08:22:38.458Z,987.01
2017-12-26T08:23:39.869Z,987.12
2017-12-26T08:24:41.277Z,987.08
2017-12-26T08:25:42.699Z,987.19
2017-12-26T08:26:44.106Z,987.25
2017-12-26T08:27:45.525Z,987.29
2017-12-26T08:28:46.953Z,987.30
2017-12-26T08:29:48.363Z,987.41
2017-12-26T08:30:49.790Z,987.37
2017-12-26T08:31:51.208Z,987.32
2017-12-26T08:32:52.623Z,987.32
2017-12-26T08:33:54.050Z,987.42
2017-12-26T08:34:55.468Z,987.50
2017-12-26T08:35:56.888Z,987.52
2017-12-26T08:36:58.302Z,987.43
2017-12-26T08:37:59.716Z,987.42
2017-12-26T08:39:01.126Z,987.45
2017-12-26T08:40:02.546Z,987.36
2017-12-26T08:41:03.968Z,987.43
2017-12-26T08:42:05.396Z,987.37
2017-12-26T08:43:06.822Z,987.37
2017-12-26T08:44:08.242Z,987.36
2017-12-26T08:45:09.656Z,987.50
2017-12-26T08:46:11.067Z,987.51
2017-12-26T08:47:12.490Z,987.26
2017-12-26T08:48:13.905Z,987.32
2017-12-26T08:49:15.320Z,987.41
2017-12-26T08:50:16.737Z,987.30
2017-12-26T08:51:18.158Z,987.26
2017-12-26T08:52:19.585Z,987.35
2017-12-26T08:53:20.999Z,987.41
2017-12-26T08:54:22.417Z,987.42
2017-12-26T08:55:23.832Z,987.49
2017-12-26T08:56:25.245Z,987.57
2017-12-26T08:57:26.661Z,987.55
2017-12-26T08:58:28.070Z,987.54
2017-12-26T08:59:29.485Z,987.56
2017-12-26T09:00:30.902Z,987.55
2017-12-26T09:01:32.323Z,987.59
2017-12-26T09:02:33.728Z,987.60
2017-12-26T09:03:35.168Z,987.62
2017-12-26T09:04:36.583Z,987.67
2017-12-26T09:05:38.009Z,987.75
2017-12-26T09:06:39.421Z,987.72
2017-12-26T09:07:40.844Z,987.75
2017-12-26T09:08:42.262Z,987.74
2017-12-26T09:09:43.671Z,987.87
2017-12-26T09:10:45.159Z,987.81
2017-12-26T09:11:46.568Z,987.81
2017-12-26T09:12:47.983Z,987.88
2017-12-26T09:13:49.401Z,987.86
2017-12-26T09:14:50.808Z,987.92
2017-12-26T09:15:52.232Z,987.95
2017-12-26T09:16:53.650Z,987.93
2017-12-26T09:17:55.096Z,987.96
2017-12-26T09:18:56.487Z,987.89
2017-12-26T09:19:57.899Z,987.93
2017-12-26T09:20:59.325Z,987.88
2017-12-26T09:22:00.731Z,987.90
2017-12-26T09:23:02.144Z,987.88
2017-12-26T09:24:03.556Z,987.95
2017-12-26T09:25:05.009Z,987.99
2017-12-26T09:26:07.235Z,988.08
2017-12-26T09:27:08.676Z,988.05
2017-12-26T09:28:10.089Z,988.11
2017-12-26T09:29:11.733Z,988.12
2017-12-26T09:30:13.185Z,988.10
2017-12-26T09:31:14.598Z,988.09
2017-12-26T09:32:16.007Z,988.17
2017-12-26T09:33:17.488Z,988.12
2017-12-26T09:34:18.912Z,988.09
2017-12-26T09:35:20.324Z,988.11
2017-12-26T09:36:21.742Z,988.05
2017-12-26T09:37:23.251Z,988.06
2017-12-26T09:38:25.863Z,988.04
2017-12-26T09:39:27.589Z,988.09
2017-12-26T09:40:29.378Z,988.11
2017-12-26T09:41:30.736Z,988.04
2017-12-26T09:42:32.151Z,988.05
2017-12-26T09:43:33.571Z,988.02
2017-12-26T09:44:34.991Z,988.08
2017-12-26T09:45:36.413Z,988.06
2017-12-26T09:46:37.813Z,988.00
2017-12-26T09:47:39.229Z,988.05
2017-12-26T09:48:40.647Z,988.12
2017-12-26T09:49:42.117Z,988.17
2017-12-26T09:50:43.538Z,988.20
2017-12-26T09:51:44.967Z,988.19
2017-12-26T09:52:46.368Z,988.24
2017-12-26T09:53:47.782Z,988.28
2017-12-26T09:54:49.212Z,988.26
2017-12-26T09:55:50.630Z,988.30
2017-12-26T09:56:52.055Z,988.28
2017-12-26T09:57:53.459Z,988.24
2017-12-26T09:58:54.880Z,988.31
2017-12-26T09:59:56.301Z,988.25
2017-12-26T10:00:57.715Z,988.22
2017-12-26T10:01:59.123Z,988.24
2017-12-26T10:03:00.534Z,988.34
2017-12-26T10:04:01.942Z,988.28
2017-12-26T10:05:03.400Z,988.21
2017-12-26T10:06:04.870Z,988.21
2017-12-26T10:07:06.360Z,988.14
2017-12-26T10:08:07.819Z,988.20
2017-12-26T10:09:09.238Z,988.11
2017-12-26T10:10:10.660Z,988.09
2017-12-26T10:11:12.191Z,988.06
2017-12-26T10:12:13.665Z,988.11
2017-12-26T10:13:15.042Z,988.17
2017-12-26T10:14:16.458Z,988.15
2017-12-26T10:15:17.875Z,988.13
2017-12-26T10:16:19.281Z,988.15
2017-12-26T10:17:20.758Z,988.19
2017-12-26T10:18:22.168Z,988.19
2017-12-26T10:19:23.586Z,988.29
2017-12-26T10:20:25.002Z,988.32
2017-12-26T10:21:26.417Z,988.35
2017-12-26T10:22:27.827Z,988.35
2017-12-26T10:23:29.237Z,988.36
2017-12-26T10:24:30.674Z,988.32
2017-12-26T10:25:32.086Z,988.35
2017-12-26T10:26:33.505Z,988.39
2017-12-26T10:27:34.925Z,988.45
2017-12-26T10:28:36.342Z,988.47
2017-12-26T10:29:37.759Z,988.43
2017-12-26T10:30:39.178Z,988.42
2017-12-26T10:31:40.591Z,988.44
2017-12-26T10:32:42.022Z,988.49
2017-12-26T10:33:43.434Z,988.46
2017-12-26T10:34:44.852Z,988.49
2017-12-26T10:35:46.275Z,988.61
2017-12-26T10:36:47.690Z,988.57
2017-12-26T10:37:49.103Z,988.52
2017-12-26T10:38:50.518Z,988.66
2017-12-26T10:39:51.938Z,988.74
2017-12-26T10:40:53.366Z,988.76
2017-12-26T10:41:54.778Z,988.87
2017-12-26T10:42:56.192Z,988.81
2017-12-26T10:43:57.613Z,988.81
2017-12-26T10:44:59.036Z,988.83
2017-12-26T10:46:00.446Z,988.97
2017-12-26T10:47:01.859Z,989.00
2017-12-26T10:48:03.278Z,988.93
2017-12-26T10:49:04.699Z,989.00
2017-12-26T10:50:06.240Z,988.93
2017-12-26T10:51:07.655Z,988.95
2017-12-26T10:52:09.074Z,988.90
2017-12-26T10:53:10.496Z,988.99
2017-12-26T10:54:11.912Z,989.03
2017-12-26T10:55:13.334Z,989.13
2017-12-26T10:56:14.828Z,989.14
2017-12-26T10:57:16.251Z,989.14
2017-12-26T10:58:17.673Z,989.10
2017-12-26T10:59:19.098Z,989.10
2017-12-26T11:00:20.519Z,989.17
2017-12-26T11:01:21.938Z,989.27
2017-12-26T11:02:23.363Z,989.31
2017-12-26T11:03:24.786Z,989.27
2017-12-26T11:04:26.218Z,989.22
2017-12-26T11:05:27.667Z,989.21
2017-12-26T11:06:29.093Z,989.24
2017-12-26T11:07:30.511Z,989.19
2017-12-26T11:08:31.937Z,989.28
2017-12-26T11:09:33.352Z,989.20
2017-12-26T11:10:34.775Z,989.28
2017-12-26T11:11:36.190Z,989.16
2017-12-26T11:12:37.612Z,989.33
2017-12-26T11:13:39.029Z,989.18
2017-12-26T11:14:40.440Z,989.25
2017-12-26T11:15:41.858Z,989.25
2017-12-26T11:16:43.291Z,989.24
2017-12-26T11:17:44.714Z,989.27
2017-12-26T11:18:46.126Z,989.22
2017-12-26T11:19:47.544Z,989.21
2017-12-26T11:20:48.950Z,989.20
2017-12-26T11:21:50.377Z,989.21
2017-12-26T11:22:51.803Z,989.22
2017-12-26T11:23:53.217Z,989.21
2017-12-26T11:24:54.658Z,989.22
2017-12-26T11:25:56.066Z,989.16
2017-12-26T11:26:57.488Z,989.22
2017-12-26T11:28:05.068Z,989.31
2017-12-26T11:29:07.071Z,989.29
2017-12-26T11:30:08.513Z,989.17
2017-12-26T11:31:12.062Z,989.20
2017-12-26T11:32:16.114Z,989.18
2017-12-26T11:33:20.410Z,989.24
2017-12-26T11:34:22.711Z,989.20
2017-12-26T11:35:26.744Z,989.16
2017-12-26T11:36:30.393Z,989.21
2017-12-26T11:37:35.329Z,989.17
2017-12-26T11:38:37.566Z,989.28
2017-12-26T11:39:43.029Z,989.17
2017-12-26T11:40:46.929Z,989.12
2017-12-26T11:41:50.687Z,989.22
2017-12-26T11:42:55.136Z,989.07
2017-12-26T11:43:58.671Z,989.18
2017-12-26T11:45:00.746Z,989.17
2017-12-26T11:46:02.836Z,989.16
2017-12-26T11:47:06.909Z,989.12
2017-12-26T11:48:08.926Z,989.18
2017-12-26T11:49:11.368Z,989.17
2017-12-26T11:50:12.780Z,989.16
2017-12-26T11:51:14.212Z,989.12
2017-12-26T11:52:15.633Z,989.30
2017-12-26T11:53:17.054Z,989.28
2017-12-26T11:54:18.474Z,989.25
2017-12-26T11:55:19.910Z,989.25
2017-12-26T11:56:21.329Z,989.26
2017-12-26T11:57:22.759Z,989.19
2017-12-26T11:58:24.177Z,989.21
2017-12-26T11:59:30.684Z,989.22
2017-12-26T12:00:35.479Z,989.27
2017-12-26T12:01:39.265Z,989.22
2017-12-26T12:02:43.827Z,989.26
2017-12-26T12:03:47.069Z,989.24
2017-12-26T12:04:51.605Z,989.30
2017-12-26T12:05:55.482Z,989.39
2017-12-26T12:06:59.806Z,989.45
2017-12-26T12:08:04.611Z,989.45
2017-12-26T12:09:08.289Z,989.50
2017-12-26T12:10:11.670Z,989.54
2017-12-26T12:11:15.998Z,989.46
2017-12-26T12:12:19.350Z,989.50
2017-12-26T12:13:23.218Z,989.55
2017-12-26T12:14:24.394Z,989.57
2017-12-26T12:15:25.814Z,989.56
2017-12-26T12:16:27.264Z,989.57
2017-12-26T12:17:28.692Z,989.57
2017-12-26T12:18:30.110Z,989.48
2017-12-26T12:19:31.572Z,989.51
2017-12-26T12:20:33.005Z,989.51
2017-12-26T12:21:34.432Z,989.54
2017-12-26T12:22:35.847Z,989.50
2017-12-26T12:23:37.285Z,989.48
2017-12-26T12:24:38.678Z,989.50
2017-12-26T12:25:40.091Z,989.54
2017-12-26T12:26:41.511Z,989.65
2017-12-26T12:27:42.927Z,989.49
2017-12-26T12:28:44.460Z,989.58
2017-12-26T12:29:45.872Z,989.59
2017-12-26T12:30:47.297Z,989.59
2017-12-26T12:31:48.706Z,989.61
2017-12-26T12:32:50.125Z,989.59
2017-12-26T12:33:51.532Z,989.50
2017-12-26T12:34:52.950Z,989.51
2017-12-26T12:35:54.389Z,989.51
2017-12-26T12:36:55.868Z,989.55
2017-12-26T12:37:57.321Z,989.51
2017-12-26T12:38:58.739Z,989.56
2017-12-26T12:40:00.162Z,989.56
2017-12-26T12:41:01.583Z,989.53
2017-12-26T12:42:03.007Z,989.60
2017-12-26T12:43:04.433Z,989.58
2017-12-26T12:44:05.850Z,989.58
2017-12-26T12:45:07.271Z,989.56
2017-12-26T12:46:08.692Z,989.60
2017-12-26T12:47:10.142Z,989.56